sensor_id;sensor_type;location;lat;lon;timestamp;P1;durP1;ratioP1;P2;durP2;ratioP2
77432;SDS011;66752;48.576;8.876;2023-03-08T00:01:40;10.82;;;5.65;;
77432;SDS011;66752;48.576;8.876;2023-03-08T00:04:06;19.02;;;8.45;;
77432;SDS011;66752;48.576;8.876;2023-03-08T00:06:32;23.75;;;9.15;;
77432;SDS011;66752;48.576;8.876;2023-03-08T00:08:59;19.13;;;9.93;;
77432;SDS011;66752;48.576;8.876;2023-03-08T00:11:26;21.73;;;10.50;;
77432;SDS011;66752;48.576;8.876;2023-03-08T00:13:52;16.92;;;8.75;;
77432;SDS011;66752;48.576;8.876;2023-03-08T00:16:19;16.25;;;7.60;;
77432;SDS011;66752;48.576;8.876;2023-03-08T00:18:45;14.20;;;7.28;;
77432;SDS011;66752;48.576;8.876;2023-03-08T00:21:12;16.73;;;7.63;;
77432;SDS011;66752;48.576;8.876;2023-03-08T00:23:39;15.95;;;9.15;;
77432;SDS011;66752;48.576;8.876;2023-03-08T00:26:05;13.13;;;6.60;;
77432;SDS011;66752;48.576;8.876;2023-03-08T00:28:31;15.45;;;7.25;;
77432;SDS011;66752;48.576;8.876;2023-03-08T00:31:01;12.13;;;6.15;;
77432;SDS011;66752;48.576;8.876;2023-03-08T00:33:28;14.32;;;6.68;;
77432;SDS011;66752;48.576;8.876;2023-03-08T00:35:58;14.98;;;5.85;;
77432;SDS011;66752;48.576;8.876;2023-03-08T00:38:24;10.93;;;5.80;;
77432;SDS011;66752;48.576;8.876;2023-03-08T00:40:50;13.48;;;6.55;;
77432;SDS011;66752;48.576;8.876;2023-03-08T00:43:16;14.27;;;6.43;;
77432;SDS011;66752;48.576;8.876;2023-03-08T00:45:42;11.10;;;5.35;;
77432;SDS011;66752;48.576;8.876;2023-03-08T00:48:08;12.70;;;6.55;;
77432;SDS011;66752;48.576;8.876;2023-03-08T00:50:34;12.43;;;6.10;;
77432;SDS011;66752;48.576;8.876;2023-03-08T00:53:00;13.43;;;6.60;;
77432;SDS011;66752;48.576;8.876;2023-03-08T00:55:26;12.20;;;6.10;;
77432;SDS011;66752;48.576;8.876;2023-03-08T00:57:52;12.95;;;5.88;;
77432;SDS011;66752;48.576;8.876;2023-03-08T01:00:18;15.73;;;6.75;;
77432;SDS011;66752;48.576;8.876;2023-03-08T01:02:44;17.15;;;8.10;;
77432;SDS011;66752;48.576;8.876;2023-03-08T01:05:10;10.30;;;5.72;;
77432;SDS011;66752;48.576;8.876;2023-03-08T01:07:36;14.75;;;6.13;;
77432;SDS011;66752;48.576;8.876;2023-03-08T01:10:02;13.38;;;6.57;;
77432;SDS011;66752;48.576;8.876;2023-03-08T01:14:55;13.82;;;6.25;;
77432;SDS011;66752;48.576;8.876;2023-03-08T01:17:22;16.20;;;6.88;;
77432;SDS011;66752;48.576;8.876;2023-03-08T01:19:48;17.15;;;7.00;;
77432;SDS011;66752;48.576;8.876;2023-03-08T01:22:13;14.55;;;6.85;;
77432;SDS011;66752;48.576;8.876;2023-03-08T01:24:43;13.93;;;6.78;;
77432;SDS011;66752;48.576;8.876;2023-03-08T01:27:09;16.27;;;6.57;;
77432;SDS011;66752;48.576;8.876;2023-03-08T01:29:35;15.32;;;6.72;;
77432;SDS011;66752;48.576;8.876;2023-03-08T01:32:01;14.70;;;6.38;;
77432;SDS011;66752;48.576;8.876;2023-03-08T01:34:27;12.07;;;6.22;;
77432;SDS011;66752;48.576;8.876;2023-03-08T01:36:53;16.70;;;6.68;;
77432;SDS011;66752;48.576;8.876;2023-03-08T01:39:19;14.32;;;6.88;;
77432;SDS011;66752;48.576;8.876;2023-03-08T01:41:45;12.40;;;6.75;;
77432;SDS011;66752;48.576;8.876;2023-03-08T01:44:17;14.90;;;6.88;;
77432;SDS011;66752;48.576;8.876;2023-03-08T01:51:38;13.63;;;6.32;;
77432;SDS011;66752;48.576;8.876;2023-03-08T01:54:06;12.70;;;6.22;;
77432;SDS011;66752;48.576;8.876;2023-03-08T01:56:32;15.57;;;6.35;;
77432;SDS011;66752;48.576;8.876;2023-03-08T01:58:59;13.00;;;6.60;;
77432;SDS011;66752;48.576;8.876;2023-03-08T02:01:25;14.50;;;6.10;;
77432;SDS011;66752;48.576;8.876;2023-03-08T02:03:51;14.65;;;6.68;;
77432;SDS011;66752;48.576;8.876;2023-03-08T02:06:17;16.55;;;6.72;;
77432;SDS011;66752;48.576;8.876;2023-03-08T02:08:44;11.73;;;6.00;;
77432;SDS011;66752;48.576;8.876;2023-03-08T02:11:10;14.23;;;6.30;;
77432;SDS011;66752;48.576;8.876;2023-03-08T02:13:38;10.65;;;6.00;;
77432;SDS011;66752;48.576;8.876;2023-03-08T02:16:04;12.35;;;6.20;;
77432;SDS011;66752;48.576;8.876;2023-03-08T02:18:32;11.98;;;6.45;;
77432;SDS011;66752;48.576;8.876;2023-03-08T02:20:58;14.90;;;6.65;;
77432;SDS011;66752;48.576;8.876;2023-03-08T02:23:24;13.32;;;6.18;;
77432;SDS011;66752;48.576;8.876;2023-03-08T02:25:55;14.77;;;6.65;;
77432;SDS011;66752;48.576;8.876;2023-03-08T02:28:22;12.13;;;6.45;;
77432;SDS011;66752;48.576;8.876;2023-03-08T02:30:49;14.18;;;6.75;;
77432;SDS011;66752;48.576;8.876;2023-03-08T02:33:15;12.98;;;6.07;;
77432;SDS011;66752;48.576;8.876;2023-03-08T02:35:43;12.77;;;6.45;;
77432;SDS011;66752;48.576;8.876;2023-03-08T02:38:09;13.82;;;7.18;;
77432;SDS011;66752;48.576;8.876;2023-03-08T02:40:36;16.85;;;8.25;;
77432;SDS011;66752;48.576;8.876;2023-03-08T02:43:02;11.95;;;6.40;;
77432;SDS011;66752;48.576;8.876;2023-03-08T02:45:28;12.52;;;5.97;;
77432;SDS011;66752;48.576;8.876;2023-03-08T02:47:54;12.55;;;6.68;;
77432;SDS011;66752;48.576;8.876;2023-03-08T02:50:20;16.70;;;7.00;;
77432;SDS011;66752;48.576;8.876;2023-03-08T02:52:46;14.00;;;6.70;;
77432;SDS011;66752;48.576;8.876;2023-03-08T02:55:12;14.88;;;6.75;;
77432;SDS011;66752;48.576;8.876;2023-03-08T02:57:38;14.82;;;6.35;;
77432;SDS011;66752;48.576;8.876;2023-03-08T03:00:04;16.45;;;6.75;;
77432;SDS011;66752;48.576;8.876;2023-03-08T03:02:33;13.88;;;6.22;;
77432;SDS011;66752;48.576;8.876;2023-03-08T03:04:59;12.10;;;5.97;;
77432;SDS011;66752;48.576;8.876;2023-03-08T03:07:27;12.85;;;6.38;;
77432;SDS011;66752;48.576;8.876;2023-03-08T03:09:52;11.25;;;5.78;;
77432;SDS011;66752;48.576;8.876;2023-03-08T03:12:18;12.48;;;5.95;;
77432;SDS011;66752;48.576;8.876;2023-03-08T03:14:44;13.57;;;6.68;;
77432;SDS011;66752;48.576;8.876;2023-03-08T03:17:10;13.93;;;6.38;;
77432;SDS011;66752;48.576;8.876;2023-03-08T03:19:36;11.10;;;5.25;;
77432;SDS011;66752;48.576;8.876;2023-03-08T03:22:03;14.07;;;6.63;;
77432;SDS011;66752;48.576;8.876;2023-03-08T03:24:29;15.93;;;6.53;;
77432;SDS011;66752;48.576;8.876;2023-03-08T03:26:54;12.30;;;5.85;;
77432;SDS011;66752;48.576;8.876;2023-03-08T03:29:20;13.38;;;5.97;;
77432;SDS011;66752;48.576;8.876;2023-03-08T03:31:46;15.20;;;6.40;;
77432;SDS011;66752;48.576;8.876;2023-03-08T03:34:13;11.98;;;6.18;;
77432;SDS011;66752;48.576;8.876;2023-03-08T03:36:39;15.18;;;6.45;;
77432;SDS011;66752;48.576;8.876;2023-03-08T03:39:05;14.05;;;6.45;;
77432;SDS011;66752;48.576;8.876;2023-03-08T03:41:31;17.88;;;6.35;;
77432;SDS011;66752;48.576;8.876;2023-03-08T03:43:57;13.70;;;6.35;;
77432;SDS011;66752;48.576;8.876;2023-03-08T03:46:23;12.82;;;6.45;;
77432;SDS011;66752;48.576;8.876;2023-03-08T03:48:49;15.20;;;6.13;;
77432;SDS011;66752;48.576;8.876;2023-03-08T03:51:16;13.52;;;5.90;;
77432;SDS011;66752;48.576;8.876;2023-03-08T03:56:15;11.93;;;5.43;;
77432;SDS011;66752;48.576;8.876;2023-03-08T03:58:41;12.32;;;5.93;;
77432;SDS011;66752;48.576;8.876;2023-03-08T04:01:08;11.80;;;5.72;;
77432;SDS011;66752;48.576;8.876;2023-03-08T04:03:34;13.93;;;5.65;;
77432;SDS011;66752;48.576;8.876;2023-03-08T04:06:04;13.48;;;6.25;;
77432;SDS011;66752;48.576;8.876;2023-03-08T04:08:30;11.13;;;5.80;;
77432;SDS011;66752;48.576;8.876;2023-03-08T04:10:58;14.32;;;6.03;;
77432;SDS011;66752;48.576;8.876;2023-03-08T04:13:24;13.85;;;6.13;;
77432;SDS011;66752;48.576;8.876;2023-03-08T04:15:50;17.05;;;6.30;;
77432;SDS011;66752;48.576;8.876;2023-03-08T04:18:16;15.23;;;6.78;;
77432;SDS011;66752;48.576;8.876;2023-03-08T04:20:45;14.57;;;6.70;;
77432;SDS011;66752;48.576;8.876;2023-03-08T04:23:11;14.38;;;7.03;;
77432;SDS011;66752;48.576;8.876;2023-03-08T04:25:37;15.52;;;7.28;;
77432;SDS011;66752;48.576;8.876;2023-03-08T04:28:03;14.48;;;6.82;;
77432;SDS011;66752;48.576;8.876;2023-03-08T04:30:29;14.27;;;7.35;;
77432;SDS011;66752;48.576;8.876;2023-03-08T04:32:55;15.57;;;7.05;;
77432;SDS011;66752;48.576;8.876;2023-03-08T04:35:21;13.38;;;6.25;;
77432;SDS011;66752;48.576;8.876;2023-03-08T04:37:47;12.10;;;6.13;;
77432;SDS011;66752;48.576;8.876;2023-03-08T04:40:13;16.58;;;6.03;;
77432;SDS011;66752;48.576;8.876;2023-03-08T04:42:39;14.60;;;7.28;;
77432;SDS011;66752;48.576;8.876;2023-03-08T04:45:05;12.93;;;6.18;;
77432;SDS011;66752;48.576;8.876;2023-03-08T04:47:31;17.90;;;7.63;;
77432;SDS011;66752;48.576;8.876;2023-03-08T04:49:57;19.13;;;8.90;;
77432;SDS011;66752;48.576;8.876;2023-03-08T04:52:23;18.42;;;7.35;;
77432;SDS011;66752;48.576;8.876;2023-03-08T04:54:49;14.38;;;6.18;;
77432;SDS011;66752;48.576;8.876;2023-03-08T04:57:16;17.65;;;7.05;;
77432;SDS011;66752;48.576;8.876;2023-03-08T04:59:42;13.80;;;6.88;;
77432;SDS011;66752;48.576;8.876;2023-03-08T05:02:08;13.20;;;6.55;;
77432;SDS011;66752;48.576;8.876;2023-03-08T05:04:34;14.88;;;6.43;;
77432;SDS011;66752;48.576;8.876;2023-03-08T05:07:00;14.80;;;6.47;;
77432;SDS011;66752;48.576;8.876;2023-03-08T05:09:26;12.85;;;6.20;;
77432;SDS011;66752;48.576;8.876;2023-03-08T05:11:52;14.48;;;6.07;;
77432;SDS011;66752;48.576;8.876;2023-03-08T05:14:18;12.68;;;6.13;;
77432;SDS011;66752;48.576;8.876;2023-03-08T05:16:45;13.10;;;6.15;;
77432;SDS011;66752;48.576;8.876;2023-03-08T05:19:11;12.93;;;6.72;;
77432;SDS011;66752;48.576;8.876;2023-03-08T05:21:37;13.60;;;6.22;;
77432;SDS011;66752;48.576;8.876;2023-03-08T05:24:03;13.05;;;6.47;;
77432;SDS011;66752;48.576;8.876;2023-03-08T05:26:29;13.75;;;6.43;;
77432;SDS011;66752;48.576;8.876;2023-03-08T05:28:55;15.80;;;6.85;;
77432;SDS011;66752;48.576;8.876;2023-03-08T05:31:21;15.05;;;7.88;;
77432;SDS011;66752;48.576;8.876;2023-03-08T05:33:48;15.07;;;7.53;;
77432;SDS011;66752;48.576;8.876;2023-03-08T05:36:15;14.55;;;6.57;;
77432;SDS011;66752;48.576;8.876;2023-03-08T05:38:41;12.05;;;5.95;;
77432;SDS011;66752;48.576;8.876;2023-03-08T05:41:08;15.10;;;6.30;;
77432;SDS011;66752;48.576;8.876;2023-03-08T05:43:35;16.98;;;6.95;;
77432;SDS011;66752;48.576;8.876;2023-03-08T05:48:28;14.73;;;6.78;;
77432;SDS011;66752;48.576;8.876;2023-03-08T05:50:54;14.90;;;6.72;;
77432;SDS011;66752;48.576;8.876;2023-03-08T05:53:20;15.73;;;7.53;;
77432;SDS011;66752;48.576;8.876;2023-03-08T05:55:46;15.40;;;7.65;;
77432;SDS011;66752;48.576;8.876;2023-03-08T05:58:13;17.33;;;9.15;;
77432;SDS011;66752;48.576;8.876;2023-03-08T06:00:39;15.35;;;7.70;;
77432;SDS011;66752;48.576;8.876;2023-03-08T06:03:05;13.75;;;7.15;;
77432;SDS011;66752;48.576;8.876;2023-03-08T06:05:31;16.05;;;7.18;;
77432;SDS011;66752;48.576;8.876;2023-03-08T06:07:57;15.02;;;6.28;;
77432;SDS011;66752;48.576;8.876;2023-03-08T06:10:24;13.57;;;6.28;;
77432;SDS011;66752;48.576;8.876;2023-03-08T06:12:50;16.00;;;7.40;;
77432;SDS011;66752;48.576;8.876;2023-03-08T06:15:16;13.60;;;7.50;;
77432;SDS011;66752;48.576;8.876;2023-03-08T06:17:42;15.15;;;6.97;;
77432;SDS011;66752;48.576;8.876;2023-03-08T06:20:08;13.68;;;6.85;;
77432;SDS011;66752;48.576;8.876;2023-03-08T06:22:34;13.52;;;7.20;;
77432;SDS011;66752;48.576;8.876;2023-03-08T06:25:01;15.43;;;7.65;;
77432;SDS011;66752;48.576;8.876;2023-03-08T06:27:27;15.45;;;7.03;;
77432;SDS011;66752;48.576;8.876;2023-03-08T06:29:52;16.83;;;8.43;;
77432;SDS011;66752;48.576;8.876;2023-03-08T06:32:20;17.08;;;7.65;;
77432;SDS011;66752;48.576;8.876;2023-03-08T06:34:46;17.08;;;8.52;;
77432;SDS011;66752;48.576;8.876;2023-03-08T06:37:12;16.20;;;7.22;;
77432;SDS011;66752;48.576;8.876;2023-03-08T06:39:39;18.45;;;7.75;;
77432;SDS011;66752;48.576;8.876;2023-03-08T06:42:05;18.85;;;8.50;;
77432;SDS011;66752;48.576;8.876;2023-03-08T06:44:32;18.20;;;8.15;;
77432;SDS011;66752;48.576;8.876;2023-03-08T06:46:57;15.55;;;8.02;;
77432;SDS011;66752;48.576;8.876;2023-03-08T06:49:23;18.17;;;7.93;;
77432;SDS011;66752;48.576;8.876;2023-03-08T06:51:50;17.15;;;8.63;;
77432;SDS011;66752;48.576;8.876;2023-03-08T06:54:15;15.48;;;8.70;;
77432;SDS011;66752;48.576;8.876;2023-03-08T06:56:43;22.13;;;9.75;;
77432;SDS011;66752;48.576;8.876;2023-03-08T06:59:09;19.27;;;9.00;;
77432;SDS011;66752;48.576;8.876;2023-03-08T07:01:35;17.35;;;9.07;;
77432;SDS011;66752;48.576;8.876;2023-03-08T07:04:01;18.92;;;9.52;;
77432;SDS011;66752;48.576;8.876;2023-03-08T07:06:27;22.40;;;9.27;;
77432;SDS011;66752;48.576;8.876;2023-03-08T07:08:53;17.75;;;8.63;;
77432;SDS011;66752;48.576;8.876;2023-03-08T07:11:19;18.00;;;9.63;;
77432;SDS011;66752;48.576;8.876;2023-03-08T07:13:45;20.27;;;9.95;;
77432;SDS011;66752;48.576;8.876;2023-03-08T07:16:11;16.88;;;8.45;;
77432;SDS011;66752;48.576;8.876;2023-03-08T07:18:38;17.77;;;8.13;;
77432;SDS011;66752;48.576;8.876;2023-03-08T07:21:04;17.65;;;7.63;;
77432;SDS011;66752;48.576;8.876;2023-03-08T07:23:30;20.23;;;9.63;;
77432;SDS011;66752;48.576;8.876;2023-03-08T07:25:56;16.08;;;7.50;;
77432;SDS011;66752;48.576;8.876;2023-03-08T07:28:22;18.15;;;8.32;;
77432;SDS011;66752;48.576;8.876;2023-03-08T07:30:49;18.15;;;8.95;;
77432;SDS011;66752;48.576;8.876;2023-03-08T07:33:16;19.42;;;8.13;;
77432;SDS011;66752;48.576;8.876;2023-03-08T07:35:42;16.52;;;8.40;;
77432;SDS011;66752;48.576;8.876;2023-03-08T07:38:10;16.80;;;7.32;;
77432;SDS011;66752;48.576;8.876;2023-03-08T07:40:36;19.80;;;8.23;;
77432;SDS011;66752;48.576;8.876;2023-03-08T07:43:02;17.17;;;8.18;;
77432;SDS011;66752;48.576;8.876;2023-03-08T07:45:28;23.13;;;8.02;;
77432;SDS011;66752;48.576;8.876;2023-03-08T07:47:54;21.17;;;8.63;;
77432;SDS011;66752;48.576;8.876;2023-03-08T07:50:20;19.27;;;8.77;;
77432;SDS011;66752;48.576;8.876;2023-03-08T07:52:46;16.75;;;8.57;;
77432;SDS011;66752;48.576;8.876;2023-03-08T07:55:12;15.13;;;8.43;;
77432;SDS011;66752;48.576;8.876;2023-03-08T07:57:39;17.67;;;8.45;;
77432;SDS011;66752;48.576;8.876;2023-03-08T08:00:05;16.67;;;8.90;;
77432;SDS011;66752;48.576;8.876;2023-03-08T08:02:32;18.67;;;8.35;;
77432;SDS011;66752;48.576;8.876;2023-03-08T08:04:58;17.90;;;9.00;;
77432;SDS011;66752;48.576;8.876;2023-03-08T08:07:24;18.10;;;8.63;;
77432;SDS011;66752;48.576;8.876;2023-03-08T08:09:50;17.58;;;8.85;;
77432;SDS011;66752;48.576;8.876;2023-03-08T08:12:16;16.40;;;8.25;;
77432;SDS011;66752;48.576;8.876;2023-03-08T08:14:42;18.10;;;8.55;;
77432;SDS011;66752;48.576;8.876;2023-03-08T08:17:08;16.90;;;8.23;;
77432;SDS011;66752;48.576;8.876;2023-03-08T08:19:34;17.48;;;8.75;;
77432;SDS011;66752;48.576;8.876;2023-03-08T08:22:00;16.38;;;8.48;;
77432;SDS011;66752;48.576;8.876;2023-03-08T08:24:26;27.33;;;9.10;;
77432;SDS011;66752;48.576;8.876;2023-03-08T08:26:52;16.27;;;8.60;;
77432;SDS011;66752;48.576;8.876;2023-03-08T08:29:18;20.95;;;9.23;;
77432;SDS011;66752;48.576;8.876;2023-03-08T08:31:45;23.10;;;9.18;;
77432;SDS011;66752;48.576;8.876;2023-03-08T08:34:11;19.02;;;9.32;;
77432;SDS011;66752;48.576;8.876;2023-03-08T08:36:37;22.77;;;9.02;;
77432;SDS011;66752;48.576;8.876;2023-03-08T08:39:02;16.42;;;8.25;;
77432;SDS011;66752;48.576;8.876;2023-03-08T08:41:29;16.23;;;8.60;;
77432;SDS011;66752;48.576;8.876;2023-03-08T08:43:56;18.90;;;8.63;;
77432;SDS011;66752;48.576;8.876;2023-03-08T08:46:23;18.95;;;7.75;;
77432;SDS011;66752;48.576;8.876;2023-03-08T08:48:49;17.95;;;8.85;;
77432;SDS011;66752;48.576;8.876;2023-03-08T08:51:15;18.23;;;7.95;;
77432;SDS011;66752;48.576;8.876;2023-03-08T08:53:41;14.90;;;7.65;;
77432;SDS011;66752;48.576;8.876;2023-03-08T08:56:15;18.20;;;8.27;;
77432;SDS011;66752;48.576;8.876;2023-03-08T08:58:41;17.45;;;9.02;;
77432;SDS011;66752;48.576;8.876;2023-03-08T09:01:20;20.45;;;9.07;;
77432;SDS011;66752;48.576;8.876;2023-03-08T09:03:47;20.77;;;9.57;;
77432;SDS011;66752;48.576;8.876;2023-03-08T09:06:14;17.02;;;9.27;;
77432;SDS011;66752;48.576;8.876;2023-03-08T09:08:40;19.27;;;11.07;;
77432;SDS011;66752;48.576;8.876;2023-03-08T09:11:07;19.17;;;9.80;;
77432;SDS011;66752;48.576;8.876;2023-03-08T09:13:34;17.88;;;8.48;;
77432;SDS011;66752;48.576;8.876;2023-03-08T09:16:02;17.40;;;9.27;;
77432;SDS011;66752;48.576;8.876;2023-03-08T09:18:28;17.50;;;8.50;;
77432;SDS011;66752;48.576;8.876;2023-03-08T09:20:54;17.92;;;9.50;;
77432;SDS011;66752;48.576;8.876;2023-03-08T09:23:20;17.58;;;8.98;;
77432;SDS011;66752;48.576;8.876;2023-03-08T09:25:53;17.10;;;7.32;;
77432;SDS011;66752;48.576;8.876;2023-03-08T09:28:20;17.85;;;8.38;;
77432;SDS011;66752;48.576;8.876;2023-03-08T09:30:46;19.73;;;8.50;;
77432;SDS011;66752;48.576;8.876;2023-03-08T09:33:12;18.13;;;8.55;;
77432;SDS011;66752;48.576;8.876;2023-03-08T09:35:38;16.92;;;8.85;;
77432;SDS011;66752;48.576;8.876;2023-03-08T09:38:03;18.17;;;8.73;;
77432;SDS011;66752;48.576;8.876;2023-03-08T09:40:29;16.70;;;7.82;;
77432;SDS011;66752;48.576;8.876;2023-03-08T09:43:02;15.05;;;8.00;;
77432;SDS011;66752;48.576;8.876;2023-03-08T09:45:28;16.48;;;8.23;;
77432;SDS011;66752;48.576;8.876;2023-03-08T09:53:05;15.75;;;7.78;;
77432;SDS011;66752;48.576;8.876;2023-03-08T09:55:37;15.57;;;8.05;;
77432;SDS011;66752;48.576;8.876;2023-03-08T10:00:53;17.45;;;8.50;;
77432;SDS011;66752;48.576;8.876;2023-03-08T10:03:43;14.23;;;6.97;;
77432;SDS011;66752;48.576;8.876;2023-03-08T10:06:19;15.68;;;8.27;;
77432;SDS011;66752;48.576;8.876;2023-03-08T10:09:00;14.48;;;6.55;;
77432;SDS011;66752;48.576;8.876;2023-03-08T10:11:30;13.80;;;7.07;;
77432;SDS011;66752;48.576;8.876;2023-03-08T10:13:59;10.93;;;5.10;;
77432;SDS011;66752;48.576;8.876;2023-03-08T10:16:43;11.43;;;5.72;;
77432;SDS011;66752;48.576;8.876;2023-03-08T10:21:36;9.50;;;4.38;;
77432;SDS011;66752;48.576;8.876;2023-03-08T10:24:06;7.40;;;3.70;;
77432;SDS011;66752;48.576;8.876;2023-03-08T10:26:36;9.20;;;3.50;;
77432;SDS011;66752;48.576;8.876;2023-03-08T10:29:02;6.30;;;2.80;;
77432;SDS011;66752;48.576;8.876;2023-03-08T10:31:29;6.68;;;2.85;;
77432;SDS011;66752;48.576;8.876;2023-03-08T10:36:44;5.35;;;2.47;;
77432;SDS011;66752;48.576;8.876;2023-03-08T10:39:11;5.15;;;2.20;;
77432;SDS011;66752;48.576;8.876;2023-03-08T10:44:04;4.18;;;1.40;;
77432;SDS011;66752;48.576;8.876;2023-03-08T10:46:30;4.15;;;1.30;;
77432;SDS011;66752;48.576;8.876;2023-03-08T10:49:07;2.85;;;1.08;;
77432;SDS011;66752;48.576;8.876;2023-03-08T10:51:33;3.45;;;1.17;;
77432;SDS011;66752;48.576;8.876;2023-03-08T10:54:03;4.70;;;1.05;;
77432;SDS011;66752;48.576;8.876;2023-03-08T10:58:57;3.97;;;1.27;;
77432;SDS011;66752;48.576;8.876;2023-03-08T11:01:25;3.08;;;1.10;;
77432;SDS011;66752;48.576;8.876;2023-03-08T11:04:05;4.38;;;1.38;;
77432;SDS011;66752;48.576;8.876;2023-03-08T11:06:37;3.10;;;1.00;;
77432;SDS011;66752;48.576;8.876;2023-03-08T11:09:03;2.47;;;0.70;;
77432;SDS011;66752;48.576;8.876;2023-03-08T11:11:38;2.47;;;0.95;;
77432;SDS011;66752;48.576;8.876;2023-03-08T11:14:07;3.45;;;0.82;;
77432;SDS011;66752;48.576;8.876;2023-03-08T11:16:41;2.65;;;0.90;;
77432;SDS011;66752;48.576;8.876;2023-03-08T11:21:41;2.67;;;0.95;;
77432;SDS011;66752;48.576;8.876;2023-03-08T11:24:24;4.10;;;1.10;;
77432;SDS011;66752;48.576;8.876;2023-03-08T11:27:02;3.40;;;1.05;;
77432;SDS011;66752;48.576;8.876;2023-03-08T11:37:24;2.65;;;0.80;;
77432;SDS011;66752;48.576;8.876;2023-03-08T11:40:00;3.88;;;1.02;;
77432;SDS011;66752;48.576;8.876;2023-03-08T11:42:34;3.80;;;1.10;;
77432;SDS011;66752;48.576;8.876;2023-03-08T11:45:11;3.15;;;0.90;;
77432;SDS011;66752;48.576;8.876;2023-03-08T11:50:25;2.25;;;0.88;;
77432;SDS011;66752;48.576;8.876;2023-03-08T11:58:00;1.63;;;0.60;;
77432;SDS011;66752;48.576;8.876;2023-03-08T12:00:29;4.35;;;0.80;;
77432;SDS011;66752;48.576;8.876;2023-03-08T12:02:58;3.28;;;0.95;;
77432;SDS011;66752;48.576;8.876;2023-03-08T12:05:29;3.67;;;1.08;;
77432;SDS011;66752;48.576;8.876;2023-03-08T12:07:57;2.45;;;0.80;;
77432;SDS011;66752;48.576;8.876;2023-03-08T12:10:27;2.72;;;0.90;;
77432;SDS011;66752;48.576;8.876;2023-03-08T12:12:56;2.35;;;0.90;;
77432;SDS011;66752;48.576;8.876;2023-03-08T12:18:13;2.85;;;0.90;;
77432;SDS011;66752;48.576;8.876;2023-03-08T12:20:41;2.47;;;0.85;;
77432;SDS011;66752;48.576;8.876;2023-03-08T12:25:37;3.90;;;1.00;;
77432;SDS011;66752;48.576;8.876;2023-03-08T12:28:11;2.92;;;1.00;;
77432;SDS011;66752;48.576;8.876;2023-03-08T12:33:09;2.28;;;0.77;;
77432;SDS011;66752;48.576;8.876;2023-03-08T12:35:37;3.00;;;1.00;;
77432;SDS011;66752;48.576;8.876;2023-03-08T12:40:43;4.97;;;1.02;;
77432;SDS011;66752;48.576;8.876;2023-03-08T12:43:11;2.28;;;0.60;;
77432;SDS011;66752;48.576;8.876;2023-03-08T12:45:38;4.03;;;1.10;;
77432;SDS011;66752;48.576;8.876;2023-03-08T12:50:32;2.25;;;0.80;;
77432;SDS011;66752;48.576;8.876;2023-03-08T12:52:59;3.25;;;1.10;;
77432;SDS011;66752;48.576;8.876;2023-03-08T12:55:26;2.75;;;0.90;;
77432;SDS011;66752;48.576;8.876;2023-03-08T12:57:59;4.45;;;1.10;;
77432;SDS011;66752;48.576;8.876;2023-03-08T13:00:29;3.13;;;1.13;;
77432;SDS011;66752;48.576;8.876;2023-03-08T13:05:29;2.95;;;0.93;;
77432;SDS011;66752;48.576;8.876;2023-03-08T13:10:38;2.72;;;1.02;;
77432;SDS011;66752;48.576;8.876;2023-03-08T13:13:12;1.63;;;0.70;;
77432;SDS011;66752;48.576;8.876;2023-03-08T13:15:42;2.95;;;0.85;;
77432;SDS011;66752;48.576;8.876;2023-03-08T13:28:23;2.83;;;0.93;;
77432;SDS011;66752;48.576;8.876;2023-03-08T13:30:54;2.70;;;1.10;;
77432;SDS011;66752;48.576;8.876;2023-03-08T13:33:28;2.55;;;0.90;;
77432;SDS011;66752;48.576;8.876;2023-03-08T13:36:02;3.05;;;0.90;;
77432;SDS011;66752;48.576;8.876;2023-03-08T13:38:33;3.00;;;0.80;;
77432;SDS011;66752;48.576;8.876;2023-03-08T13:40:59;2.72;;;1.00;;
77432;SDS011;66752;48.576;8.876;2023-03-08T13:43:29;3.53;;;0.95;;
77432;SDS011;66752;48.576;8.876;2023-03-08T13:45:56;2.70;;;0.70;;
77432;SDS011;66752;48.576;8.876;2023-03-08T13:48:23;2.75;;;0.70;;
77432;SDS011;66752;48.576;8.876;2023-03-08T13:50:51;1.67;;;0.55;;
77432;SDS011;66752;48.576;8.876;2023-03-08T13:53:18;1.40;;;0.50;;
77432;SDS011;66752;48.576;8.876;2023-03-08T13:55:45;2.80;;;0.60;;
77432;SDS011;66752;48.576;8.876;2023-03-08T14:01:00;0.88;;;0.40;;
77432;SDS011;66752;48.576;8.876;2023-03-08T14:03:28;1.83;;;0.70;;
77432;SDS011;66752;48.576;8.876;2023-03-08T14:05:54;1.52;;;0.60;;
77432;SDS011;66752;48.576;8.876;2023-03-08T14:08:22;3.15;;;0.70;;
77432;SDS011;66752;48.576;8.876;2023-03-08T14:10:58;2.30;;;0.57;;
77432;SDS011;66752;48.576;8.876;2023-03-08T14:13:26;2.67;;;0.70;;
77432;SDS011;66752;48.576;8.876;2023-03-08T14:15:54;2.33;;;0.47;;
77432;SDS011;66752;48.576;8.876;2023-03-08T14:18:22;1.63;;;0.63;;
77432;SDS011;66752;48.576;8.876;2023-03-08T14:21:33;1.80;;;0.60;;
77432;SDS011;66752;48.576;8.876;2023-03-08T14:23:36;1.45;;;0.50;;
77432;SDS011;66752;48.576;8.876;2023-03-08T14:26:03;2.95;;;1.23;;
77432;SDS011;66752;48.576;8.876;2023-03-08T14:28:37;3.40;;;0.88;;
77432;SDS011;66752;48.576;8.876;2023-03-08T14:31:21;2.50;;;0.80;;
77432;SDS011;66752;48.576;8.876;2023-03-08T14:33:54;2.17;;;0.80;;
77432;SDS011;66752;48.576;8.876;2023-03-08T14:36:20;2.55;;;0.80;;
77432;SDS011;66752;48.576;8.876;2023-03-08T14:38:46;2.72;;;1.00;;
77432;SDS011;66752;48.576;8.876;2023-03-08T14:41:13;4.05;;;1.30;;
77432;SDS011;66752;48.576;8.876;2023-03-08T14:43:45;4.45;;;1.10;;
77432;SDS011;66752;48.576;8.876;2023-03-08T14:46:14;2.83;;;1.05;;
77432;SDS011;66752;48.576;8.876;2023-03-08T14:48:40;3.38;;;1.05;;
77432;SDS011;66752;48.576;8.876;2023-03-08T14:53:42;3.42;;;1.02;;
77432;SDS011;66752;48.576;8.876;2023-03-08T14:56:11;3.80;;;1.30;;
77432;SDS011;66752;48.576;8.876;2023-03-08T14:58:47;4.82;;;0.90;;
77432;SDS011;66752;48.576;8.876;2023-03-08T15:03:50;2.97;;;0.95;;
77432;SDS011;66752;48.576;8.876;2023-03-08T15:06:18;4.07;;;1.50;;
77432;SDS011;66752;48.576;8.876;2023-03-08T15:08:44;4.65;;;1.02;;
77432;SDS011;66752;48.576;8.876;2023-03-08T15:11:11;4.97;;;1.10;;
77432;SDS011;66752;48.576;8.876;2023-03-08T15:13:37;4.25;;;0.95;;
77432;SDS011;66752;48.576;8.876;2023-03-08T15:16:03;1.67;;;0.80;;
77432;SDS011;66752;48.576;8.876;2023-03-08T15:18:29;3.78;;;1.35;;
77432;SDS011;66752;48.576;8.876;2023-03-08T15:20:55;3.25;;;1.20;;
77432;SDS011;66752;48.576;8.876;2023-03-08T15:23:22;3.00;;;1.02;;
77432;SDS011;66752;48.576;8.876;2023-03-08T15:25:49;3.83;;;1.30;;
77432;SDS011;66752;48.576;8.876;2023-03-08T15:28:15;3.05;;;0.98;;
77432;SDS011;66752;48.576;8.876;2023-03-08T15:30:42;4.32;;;1.13;;
77432;SDS011;66752;48.576;8.876;2023-03-08T15:33:08;3.63;;;1.08;;
77432;SDS011;66752;48.576;8.876;2023-03-08T15:35:34;3.35;;;1.33;;
77432;SDS011;66752;48.576;8.876;2023-03-08T15:38:00;5.03;;;2.10;;
77432;SDS011;66752;48.576;8.876;2023-03-08T15:40:27;5.50;;;1.60;;
77432;SDS011;66752;48.576;8.876;2023-03-08T15:42:53;3.05;;;1.23;;
77432;SDS011;66752;48.576;8.876;2023-03-08T15:45:19;4.05;;;1.30;;
77432;SDS011;66752;48.576;8.876;2023-03-08T15:47:58;3.97;;;1.38;;
77432;SDS011;66752;48.576;8.876;2023-03-08T15:50:25;3.72;;;1.20;;
77432;SDS011;66752;48.576;8.876;2023-03-08T15:52:51;3.45;;;1.15;;
77432;SDS011;66752;48.576;8.876;2023-03-08T15:55:18;3.38;;;1.00;;
77432;SDS011;66752;48.576;8.876;2023-03-08T15:57:45;2.53;;;0.90;;
77432;SDS011;66752;48.576;8.876;2023-03-08T16:00:12;2.25;;;0.80;;
77432;SDS011;66752;48.576;8.876;2023-03-08T16:02:38;2.05;;;0.70;;
77432;SDS011;66752;48.576;8.876;2023-03-08T16:05:04;2.33;;;0.80;;